• Join FlightAware (Why Join?)
  • Login
  • US Flag 
08:27PM EDT


 

Airport Tracker/Info


-or-


 

Live Flight TrackerFlight Track Log ✈ AAL1419 ✈ 04-May-2013 ✈ KMIA - MDSD / SDQ

Flight Track Log - Related Links

Times and Time Zones

All times are in EDT time to prevent confusion due to time zone crossing. See the AAL1419 flight status page for this flight to view local times or setup timezone preferences in your user account.

Time Position Orientation Groundspeed Altitude Reporting Facility
EDT Latitude Longitude Course Direction KTS MPH feet Rate Location/Type
06:39PM 25.7847 -80.3133 104° East 148 170 900  Level Miami Center
06:40PM 25.7775 -80.3478 257° West 168 193 2,600 1,980 Climbing Miami Center
06:40PM 25.7628 -80.3589 214° Southwest 229 264 3,200 2,040 Climbing Miami Center
06:41PM 25.7172 -80.3392 159° South 290 334 4,900 2,100 Climbing Miami Center
06:41PM 25.7153 -80.3297 103° East 275 316 5,300 2,400 Climbing Miami Center
06:42PM 25.6738 -79.8653 104° East  Level FlightAware Approximate
06:42PM 25.6989 -80.2325 101° East 316 364 8,100  Level Miami Center
06:43PM 25.6393 -79.7240 105° East  Level FlightAware Approximate
06:43PM 25.6822 -80.1375 101° East 316 364 10,300  Level Miami Center
06:44PM 25.6174 -79.5808 104° East  Level FlightAware Approximate
06:44PM 25.6700 -80.0289 97° East 326 375 11,600  Level Miami Center
06:45PM 25.5847 -79.4390 104° East  Level FlightAware Approximate
06:45PM 25.6494 -79.9108 101° East 359 413 13,700  Level Miami Center
06:46PM 25.6311 -79.7906 100° East 383 441 16,000 2,280 Climbing Miami Center
06:47PM 25.6128 -79.6611 99° East 401 461 18,300 2,160 Climbing Miami Center
06:48PM 25.5922 -79.5292 100° East 425 489 20,400 2,160 Climbing Miami Center
06:49PM 25.5717 -79.3906 99° East 436 502 22,700 2,160 Climbing Miami Center
06:50PM 25.5489 -79.2519 100° East 446 513 24,800 1,800 Climbing Miami Center
06:51PM 25.5197 -79.1131 103° East 452 520 26,400 1,440 Climbing Miami Center
06:52PM 25.4822 -78.9675 106° East 467 537 27,700 1,260 Climbing Miami Center
06:53PM 25.4486 -78.8197 104° East 475 547 29,000 1,200 Climbing Miami Center
06:54PM 25.3900 -78.6736 114° Southeast 497 572 30,200 1,320 Climbing Miami Center
06:55PM 25.3081 -78.5414 124° Southeast 506 582 31,700 1,560 Climbing Miami Center
06:56PM 25.2258 -78.4094 125° Southeast 516 594 33,400 1,680 Climbing Miami Center
06:57PM 25.1392 -78.2822 127° Southeast 521 600 35,100 1,560 Climbing Miami Center
06:58PM 25.0589 -78.1550 125° Southeast 521 600 36,600 1,200 Climbing Miami Center
06:59PM 24.9764 -78.0281 126° Southeast 521 600 37,600 660 Climbing Miami Center
07:00PM 24.8939 -77.9014 126° Southeast 515 593 38,000 420 Climbing Miami Center
07:01PM 24.8089 -77.7722 126° Southeast 515 593 38,500 420 Climbing Miami Center
07:02PM 24.7239 -77.6367 125° Southeast 525 604 38,900 240 Climbing Miami Center
07:03PM 24.6347 -77.5058 127° Southeast 530 610 39,000  Climbing Miami Center
07:04PM 24.5517 -77.3706 124° Southeast 530 610 39,000  Level Miami Center
07:05PM 24.4664 -77.2400 126° Southeast 530 610 39,000  Level Miami Center
07:06PM 24.3850 -77.1144 125° Southeast 525 604 39,000  Level Miami Center
07:07PM 24.3039 -76.9889 125° Southeast 520 598 39,000  Level Miami Center
07:08PM 24.2203 -76.8589 125° Southeast 520 598 39,000  Level Miami Center
07:09PM 24.1325 -76.7292 127° Southeast 508 585 39,000  Level Miami Center
07:10PM 24.0508 -76.6017 125° Southeast 502 578 39,000  Level Miami Center
07:11PM 23.9647 -76.4744 127° Southeast 508 585 39,000  Level Miami Center
07:12PM 23.8786 -76.3475 127° Southeast 514 592 39,000  Level Miami Center
07:13PM 23.7944 -76.2208 126° Southeast 519 597 39,000  Level Miami Center
07:14PM 23.7083 -76.0919 126° Southeast 524 603 39,000  Level Miami Center
07:15PM 23.6303 -75.9697 125° Southeast 533 613 39,000  Level Miami Center
07:16PM 23.5417 -75.8436 127° Southeast 533 613 39,000  Level Miami Center
07:17PM 23.4531 -75.7197 128° Southeast 533 613 39,000  Level Miami Center
07:18PM 23.3706 -75.5847 124° Southeast 527 606 39,000  Level Miami Center
07:19PM 23.2772 -75.4475 126° Southeast 522 601 39,000  Level Miami Center
07:20PM 23.1819 -75.3267 131° Southeast 522 601 39,000  Level Miami Center
07:21PM 23.1078 -75.2056 124° Southeast 527 606 39,000  Level Miami Center
07:22PM 23.0183 -75.0781 127° Southeast 527 606 39,000  Level Miami Center
07:23PM 22.9292 -74.9483 127° Southeast 527 606 39,000  Level Miami Center
07:24PM 22.8439 -74.8189 126° Southeast 527 606 39,000  Level Miami Center
07:25PM 22.7542 -74.6919 127° Southeast 527 606 39,000  Level Miami Center
07:26PM 22.6647 -74.5608 126° Southeast 527 606 39,000  Level Miami Center
07:27PM 22.5769 -74.4364 127° Southeast 527 606 39,000  Level Miami Center
07:28PM 22.4850 -74.3078 128° Southeast 527 606 39,000  Level Miami Center
07:29PM 22.3953 -74.1792 127° Southeast 532 612 39,000  Level Miami Center
07:30PM 22.3050 -74.0508 127° Southeast 532 612 39,000  Level Miami Center
07:31PM 22.2192 -73.9225 126° Southeast 532 612 39,000  Level Miami Center
07:32PM 22.1289 -73.7944 127° Southeast 532 612 39,000  Level Miami Center
07:33PM 22.0450 -73.6711 126° Southeast 522 601 39,000  Level Miami Center
07:34PM 21.9567 -73.5433 127° Southeast 522 601 39,000  Level Miami Center
07:35PM 21.8681 -73.4158 127° Southeast 528 608 39,000  Level Miami Center
07:36PM 21.7797 -73.2908 127° Southeast 528 608 39,000  Level Miami Center
07:37PM 21.6869 -73.1636 128° Southeast 528 608 39,000  Level Miami Center
07:38PM 21.5983 -73.0367 127° Southeast 528 608 39,000  Level Miami Center
07:39PM 21.5094 -72.9100 127° Southeast 528 608 39,000  Level Miami Center
07:40PM 21.4186 -72.7856 128° Southeast 523 602 39,000  Level Miami Center
07:41PM 21.3294 -72.6592 127° Southeast 523 602 39,000  Level Miami Center
07:42PM 21.2406 -72.5350 128° Southeast 523 602 39,000  Level Miami Center
07:43PM 21.1472 -72.4111 129° Southeast 528 608 39,000  Level Miami Center
07:44PM 21.0581 -72.2875 128° Southeast 528 608 39,000  Level Miami Center
07:45PM 20.9689 -72.1594 127° Southeast 528 608 39,000  Level Miami Center
07:46PM 20.8772 -72.0361 128° Southeast 528 608 39,000  Level Miami Center
07:47PM 20.7881 -71.9128 128° Southeast 523 602 39,000  Level Miami Center
07:48PM 20.6983 -71.7897 128° Southeast 523 602 39,000  Level Miami Center
07:49PM 20.6111 -71.6689 128° Southeast 523 602 39,000  Level Miami Center
07:50PM 20.5194 -71.5464 129° Southeast 523 602 39,000  Level Miami Center
07:51PM 20.4317 -71.4258 128° Southeast 523 602 39,000  Level Miami Center
07:53PM 20.3467 -71.3307 145° Southeast  Level FlightAware Approximate
08:00PM 19.7902 -70.6750 115° Southeast  Level FlightAware Approximate
08:01PM 19.7397 -70.5593 146° Southeast  Level FlightAware Approximate
08:02PM 19.6373 -70.4861 146° Southeast  Level FlightAware Approximate
08:03PM 19.5350 -70.4130 146° Southeast  Level FlightAware Approximate
08:04PM 19.4314 -70.3419 147° Southeast  Level FlightAware Approximate
08:05PM 19.3277 -70.2712 147° Southeast  Level FlightAware Approximate
08:06PM 19.2238 -70.2007 147° Southeast  Level FlightAware Approximate
08:07PM 19.1200 -70.1302 147° Southeast  Level FlightAware Approximate
08:08PM 19.0157 -70.0604 148° Southeast  Level FlightAware Approximate
08:09PM 18.9119 -69.9900 146° Southeast  Level FlightAware Approximate
08:10PM 18.8091 -69.9180 146° Southeast  Level FlightAware Approximate
08:11PM 18.7052 -69.8478 148° Southeast  Level FlightAware Approximate
08:12PM 18.6020 -69.7765 145° Southeast  Level FlightAware Approximate
08:13PM 18.5015 -69.7011 145° Southeast  Level FlightAware Approximate
08:14PM 18.4297 -69.6689 150° Southeast  Level Estimated
08:15PM 18.4297 -69.6689 150° Southeast  Level Estimated
08:16PM 18.4297 -69.6689 150° Southeast  Level Estimated
08:17PM 18.4297 -69.6689 150° Southeast  Level Estimated